This is the latest recevied weather packets stored in our database for station/object 1NW106. If no packets are shown the sender has not sent any weather packets the latest 10 day(s).
| Time | Temp. | Humidity | Pressure | Rain* | Wind** | Luminosity | Snow |
|---|---|---|---|---|---|---|---|
| 1787582966 | 27.22° C | 85% | 1008.9 hPa | 13.21 mm | - | - | - |
| 1787582366 | 27.78° C | 84% | 1008.9 hPa | 13.21 mm | - | - | - |
| 1787581766 | 27.78° C | 84% | 1008.7 hPa | 13.21 mm | - | - | - |
| 1787581166 | 27.78° C | 82% | 1008.5 hPa | 13.21 mm | - | - | - |
| 1787580566 | 27.78° C | 83% | 1008.2 hPa | 13.21 mm | - | - | - |
| 1787579966 | 27.78° C | 84% | 1007.9 hPa | 13.21 mm | - | - | - |
| 1787579366 | 27.78° C | 85% | 1007.5 hPa | 13.21 mm | - | - | - |
| 1787578766 | 27.78° C | 87% | 1007.1 hPa | 13.21 mm | - | - | - |
| 1787578166 | 27.78° C | 86% | 1007 hPa | 13.21 mm | - | - | - |
| 1787577566 | 27.78° C | 87% | 1006.9 hPa | 13.21 mm | - | - | - |
| 1787576966 | 27.78° C | 87% | 1006.7 hPa | 13.21 mm | - | - | - |
| 1787576366 | 27.78° C | 88% | 1006.4 hPa | 13.21 mm | - | - | - |
| 1787575766 | 27.78° C | 88% | 1006.3 hPa | 13.21 mm | - | - | - |
| 1787575166 | 27.78° C | 89% | 1006.1 hPa | 13.21 mm | - | - | - |
| 1787574566 | 27.78° C | 87% | 1006.1 hPa | 13.21 mm | - | - | - |
| 1787573966 | 27.78° C | 88% | 1005.9 hPa | 13.21 mm | - | - | - |
| 1787573366 | 27.78° C | 88% | 1005.6 hPa | 13.21 mm | - | - | - |
| 1787572766 | 27.78° C | 90% | 1005.4 hPa | 13.21 mm | - | - | - |
| 1787572166 | 27.78° C | 91% | 1005.2 hPa | 13.21 mm | - | - | - |
| 1787571566 | 27.78° C | 91% | 1005 hPa | 13.21 mm | - | - | - |
| 1787570966 | 27.78° C | 92% | 1004.9 hPa | 13.21 mm | - | - | - |
| 1787570366 | 27.78° C | 92% | 1004.7 hPa | 13.21 mm | - | - | - |
| 1787569766 | 28.33° C | 92% | 1004.7 hPa | 13.21 mm | - | - | - |
| 1787569166 | 28.33° C | 89% | 1005.1 hPa | 13.21 mm | - | - | - |
| 1787568566 | 28.33° C | 87% | 1005.3 hPa | 13.21 mm | - | - | - |
* Rain latest hour (hover to see other rain measurements)
** Current wind speed in m/s (hover to see current wind gust speed)